sensor_id;sensor_type;location;lat;lon;timestamp;temperature;humidity
22674;DHT22;11504;43.334;21.918;2023-08-21T00:00:43;23.6;100.0
22674;DHT22;11504;43.334;21.918;2023-08-21T00:05:20;23.6;100.0
22674;DHT22;11504;43.334;21.918;2023-08-21T00:09:57;23.4;100.0
22674;DHT22;11504;43.334;21.918;2023-08-21T00:14:34;23.4;100.0
22674;DHT22;11504;43.334;21.918;2023-08-21T00:19:11;23.2;100.0
22674;DHT22;11504;43.334;21.918;2023-08-21T00:23:47;23.2;100.0
22674;DHT22;11504;43.334;21.918;2023-08-21T00:28:24;23.0;100.0
22674;DHT22;11504;43.334;21.918;2023-08-21T00:33:01;23.0;100.0
22674;DHT22;11504;43.334;21.918;2023-08-21T00:37:38;22.8;100.0
22674;DHT22;11504;43.334;21.918;2023-08-21T00:42:14;22.8;100.0
22674;DHT22;11504;43.334;21.918;2023-08-21T00:46:50;22.8;100.0
22674;DHT22;11504;43.334;21.918;2023-08-21T00:51:27;22.7;100.0
22674;DHT22;11504;43.334;21.918;2023-08-21T00:56:04;22.7;100.0
22674;DHT22;11504;43.334;21.918;2023-08-21T01:00:41;22.6;100.0
22674;DHT22;11504;43.334;21.918;2023-08-21T01:05:27;22.6;100.0
22674;DHT22;11504;43.334;21.918;2023-08-21T01:10:11;22.6;100.0
22674;DHT22;11504;43.334;21.918;2023-08-21T01:15:25;22.6;100.0
22674;DHT22;11504;43.334;21.918;2023-08-21T01:20:07;22.5;100.0
22674;DHT22;11504;43.334;21.918;2023-08-21T01:24:47;22.5;100.0
22674;DHT22;11504;43.334;21.918;2023-08-21T01:29:23;22.4;100.0
22674;DHT22;11504;43.334;21.918;2023-08-21T01:34:04;22.4;100.0
22674;DHT22;11504;43.334;21.918;2023-08-21T01:38:50;22.3;100.0
22674;DHT22;11504;43.334;21.918;2023-08-21T01:43:29;22.3;100.0
22674;DHT22;11504;43.334;21.918;2023-08-21T01:48:06;22.2;100.0
22674;DHT22;11504;43.334;21.918;2023-08-21T01:52:43;22.2;100.0
22674;DHT22;11504;43.334;21.918;2023-08-21T01:57:19;22.2;100.0
22674;DHT22;11504;43.334;21.918;2023-08-21T02:01:55;22.1;100.0
22674;DHT22;11504;43.334;21.918;2023-08-21T02:06:32;22.1;100.0
22674;DHT22;11504;43.334;21.918;2023-08-21T02:11:08;22.0;100.0
22674;DHT22;11504;43.334;21.918;2023-08-21T02:15:45;22.0;100.0
22674;DHT22;11504;43.334;21.918;2023-08-21T02:20:21;22.0;100.0
22674;DHT22;11504;43.334;21.918;2023-08-21T02:24:58;22.0;100.0
22674;DHT22;11504;43.334;21.918;2023-08-21T02:29:35;21.9;100.0
22674;DHT22;11504;43.334;21.918;2023-08-21T02:34:11;21.9;100.0
22674;DHT22;11504;43.334;21.918;2023-08-21T02:38:49;21.8;100.0
22674;DHT22;11504;43.334;21.918;2023-08-21T02:43:26;21.8;100.0
22674;DHT22;11504;43.334;21.918;2023-08-21T02:48:03;21.8;100.0
22674;DHT22;11504;43.334;21.918;2023-08-21T02:52:41;21.8;100.0
22674;DHT22;11504;43.334;21.918;2023-08-21T02:57:18;21.8;100.0
22674;DHT22;11504;43.334;21.918;2023-08-21T03:01:55;21.8;100.0
22674;DHT22;11504;43.334;21.918;2023-08-21T03:06:31;21.8;100.0
22674;DHT22;11504;43.334;21.918;2023-08-21T03:11:08;21.9;100.0
22674;DHT22;11504;43.334;21.918;2023-08-21T03:15:45;21.9;100.0
22674;DHT22;11504;43.334;21.918;2023-08-21T03:20:21;21.9;100.0
22674;DHT22;11504;43.334;21.918;2023-08-21T03:24:58;21.9;100.0
22674;DHT22;11504;43.334;21.918;2023-08-21T03:29:35;21.9;100.0
22674;DHT22;11504;43.334;21.918;2023-08-21T03:34:11;21.9;100.0
22674;DHT22;11504;43.334;21.918;2023-08-21T03:38:47;21.8;100.0
22674;DHT22;11504;43.334;21.918;2023-08-21T03:43:24;21.8;100.0
22674;DHT22;11504;43.334;21.918;2023-08-21T03:48:01;21.7;100.0
22674;DHT22;11504;43.334;21.918;2023-08-21T03:52:40;21.7;100.0
22674;DHT22;11504;43.334;21.918;2023-08-21T03:57:17;21.7;100.0
22674;DHT22;11504;43.334;21.918;2023-08-21T04:01:54;21.6;100.0
22674;DHT22;11504;43.334;21.918;2023-08-21T04:06:30;21.6;100.0
22674;DHT22;11504;43.334;21.918;2023-08-21T04:11:07;21.5;100.0
22674;DHT22;11504;43.334;21.918;2023-08-21T04:15:45;21.5;100.0
22674;DHT22;11504;43.334;21.918;2023-08-21T04:20:25;21.9;100.0
22674;DHT22;11504;43.334;21.918;2023-08-21T04:25:02;21.9;100.0
22674;DHT22;11504;43.334;21.918;2023-08-21T04:29:41;22.3;100.0
22674;DHT22;11504;43.334;21.918;2023-08-21T04:34:17;22.3;100.0
22674;DHT22;11504;43.334;21.918;2023-08-21T04:38:54;23.8;100.0
22674;DHT22;11504;43.334;21.918;2023-08-21T04:43:30;23.8;100.0
22674;DHT22;11504;43.334;21.918;2023-08-21T04:48:07;25.4;100.0
22674;DHT22;11504;43.334;21.918;2023-08-21T04:52:43;25.4;100.0
22674;DHT22;11504;43.334;21.918;2023-08-21T04:57:19;25.4;100.0
22674;DHT22;11504;43.334;21.918;2023-08-21T05:01:56;27.2;100.0
22674;DHT22;11504;43.334;21.918;2023-08-21T05:06:33;27.2;100.0
22674;DHT22;11504;43.334;21.918;2023-08-21T05:11:09;29.1;100.0
22674;DHT22;11504;43.334;21.918;2023-08-21T05:15:51;29.1;100.0
22674;DHT22;11504;43.334;21.918;2023-08-21T05:20:31;31.0;100.0
22674;DHT22;11504;43.334;21.918;2023-08-21T05:25:09;31.0;100.0
22674;DHT22;11504;43.334;21.918;2023-08-21T05:29:47;33.0;100.0
22674;DHT22;11504;43.334;21.918;2023-08-21T05:34:24;33.0;100.0
22674;DHT22;11504;43.334;21.918;2023-08-21T05:39:02;34.4;100.0
22674;DHT22;11504;43.334;21.918;2023-08-21T05:43:43;34.4;100.0
22674;DHT22;11504;43.334;21.918;2023-08-21T05:48:20;35.9;100.0
22674;DHT22;11504;43.334;21.918;2023-08-21T05:52:57;35.9;100.0
22674;DHT22;11504;43.334;21.918;2023-08-21T05:57:33;35.9;100.0
22674;DHT22;11504;43.334;21.918;2023-08-21T06:02:10;36.6;100.0
22674;DHT22;11504;43.334;21.918;2023-08-21T06:06:49;36.6;100.0
22674;DHT22;11504;43.334;21.918;2023-08-21T06:11:26;37.3;100.0
22674;DHT22;11504;43.334;21.918;2023-08-21T06:16:03;37.3;100.0
22674;DHT22;11504;43.334;21.918;2023-08-21T06:20:41;37.9;100.0
22674;DHT22;11504;43.334;21.918;2023-08-21T06:25:19;37.9;100.0
22674;DHT22;11504;43.334;21.918;2023-08-21T06:29:56;38.5;100.0
22674;DHT22;11504;43.334;21.918;2023-08-21T06:34:33;38.5;100.0
22674;DHT22;11504;43.334;21.918;2023-08-21T06:39:09;38.8;100.0
22674;DHT22;11504;43.334;21.918;2023-08-21T06:43:46;38.8;100.0
22674;DHT22;11504;43.334;21.918;2023-08-21T06:48:23;39.0;100.0
22674;DHT22;11504;43.334;21.918;2023-08-21T06:53:00;39.0;100.0
22674;DHT22;11504;43.334;21.918;2023-08-21T06:57:37;39.0;100.0
22674;DHT22;11504;43.334;21.918;2023-08-21T07:02:14;38.6;100.0
22674;DHT22;11504;43.334;21.918;2023-08-21T07:06:51;38.6;100.0
22674;DHT22;11504;43.334;21.918;2023-08-21T07:11:27;38.1;100.0
22674;DHT22;11504;43.334;21.918;2023-08-21T07:16:04;38.1;100.0
22674;DHT22;11504;43.334;21.918;2023-08-21T07:20:41;37.1;100.0
22674;DHT22;11504;43.334;21.918;2023-08-21T07:25:17;37.1;100.0
22674;DHT22;11504;43.334;21.918;2023-08-21T07:29:54;36.1;100.0
22674;DHT22;11504;43.334;21.918;2023-08-21T07:34:31;36.1;100.0
22674;DHT22;11504;43.334;21.918;2023-08-21T07:39:07;36.0;100.0
22674;DHT22;11504;43.334;21.918;2023-08-21T07:43:44;36.0;100.0
22674;DHT22;11504;43.334;21.918;2023-08-21T07:48:20;36.0;100.0
22674;DHT22;11504;43.334;21.918;2023-08-21T07:52:57;36.0;100.0
22674;DHT22;11504;43.334;21.918;2023-08-21T07:57:34;36.0;100.0
22674;DHT22;11504;43.334;21.918;2023-08-21T08:02:10;36.2;100.0
22674;DHT22;11504;43.334;21.918;2023-08-21T08:06:47;36.2;100.0
22674;DHT22;11504;43.334;21.918;2023-08-21T08:11:24;36.3;100.0
22674;DHT22;11504;43.334;21.918;2023-08-21T08:16:02;36.3;100.0
22674;DHT22;11504;43.334;21.918;2023-08-21T08:20:39;36.3;100.0
22674;DHT22;11504;43.334;21.918;2023-08-21T08:25:17;36.3;100.0
22674;DHT22;11504;43.334;21.918;2023-08-21T08:29:54;36.4;100.0
22674;DHT22;11504;43.334;21.918;2023-08-21T08:34:31;36.4;100.0
22674;DHT22;11504;43.334;21.918;2023-08-21T08:39:07;36.6;100.0
22674;DHT22;11504;43.334;21.918;2023-08-21T08:43:45;36.6;100.0
22674;DHT22;11504;43.334;21.918;2023-08-21T08:48:24;36.7;100.0
22674;DHT22;11504;43.334;21.918;2023-08-21T08:53:01;36.7;100.0
22674;DHT22;11504;43.334;21.918;2023-08-21T08:57:39;36.7;100.0
22674;DHT22;11504;43.334;21.918;2023-08-21T09:02:16;36.8;100.0
22674;DHT22;11504;43.334;21.918;2023-08-21T09:07:05;36.8;100.0
22674;DHT22;11504;43.334;21.918;2023-08-21T09:11:47;36.8;100.0
22674;DHT22;11504;43.334;21.918;2023-08-21T09:16:25;36.8;100.0
22674;DHT22;11504;43.334;21.918;2023-08-21T09:21:02;37.0;100.0
22674;DHT22;11504;43.334;21.918;2023-08-21T09:25:44;37.0;100.0
22674;DHT22;11504;43.334;21.918;2023-08-21T09:30:24;37.2;100.0
22674;DHT22;11504;43.334;21.918;2023-08-21T09:35:02;37.2;100.0
22674;DHT22;11504;43.334;21.918;2023-08-21T09:39:41;37.4;100.0
22674;DHT22;11504;43.334;21.918;2023-08-21T09:44:18;37.4;100.0
22674;DHT22;11504;43.334;21.918;2023-08-21T09:48:56;37.6;100.0
22674;DHT22;11504;43.334;21.918;2023-08-21T09:53:33;37.6;100.0
22674;DHT22;11504;43.334;21.918;2023-08-21T09:58:11;37.4;100.0
22674;DHT22;11504;43.334;21.918;2023-08-21T10:02:53;37.4;100.0
22674;DHT22;11504;43.334;21.918;2023-08-21T10:07:43;37.4;100.0
22674;DHT22;11504;43.334;21.918;2023-08-21T10:12:30;37.2;100.0
22674;DHT22;11504;43.334;21.918;2023-08-21T10:17:07;37.2;100.0
22674;DHT22;11504;43.334;21.918;2023-08-21T10:21:46;37.1;100.0
22674;DHT22;11504;43.334;21.918;2023-08-21T10:26:26;37.1;100.0
22674;DHT22;11504;43.334;21.918;2023-08-21T10:31:25;37.0;100.0
22674;DHT22;11504;43.334;21.918;2023-08-21T10:36:10;37.0;100.0
22674;DHT22;11504;43.334;21.918;2023-08-21T10:41:04;36.8;100.0
22674;DHT22;11504;43.334;21.918;2023-08-21T10:45:53;36.8;100.0
22674;DHT22;11504;43.334;21.918;2023-08-21T10:50:31;36.7;100.0
22674;DHT22;11504;43.334;21.918;2023-08-21T10:55:09;36.7;100.0
22674;DHT22;11504;43.334;21.918;2023-08-21T10:59:55;36.4;100.0
22674;DHT22;11504;43.334;21.918;2023-08-21T11:04:41;36.4;100.0
22674;DHT22;11504;43.334;21.918;2023-08-21T11:09:18;36.1;100.0
22674;DHT22;11504;43.334;21.918;2023-08-21T11:13:55;36.1;100.0
22674;DHT22;11504;43.334;21.918;2023-08-21T11:18:32;35.8;100.0
22674;DHT22;11504;43.334;21.918;2023-08-21T11:23:13;35.8;100.0
22674;DHT22;11504;43.334;21.918;2023-08-21T11:27:50;35.8;100.0
22674;DHT22;11504;43.334;21.918;2023-08-21T11:32:29;35.5;100.0
22674;DHT22;11504;43.334;21.918;2023-08-21T11:37:05;35.5;100.0
22674;DHT22;11504;43.334;21.918;2023-08-21T11:41:58;35.4;100.0
22674;DHT22;11504;43.334;21.918;2023-08-21T11:46:35;35.4;100.0
22674;DHT22;11504;43.334;21.918;2023-08-21T11:51:12;35.2;100.0
22674;DHT22;11504;43.334;21.918;2023-08-21T11:55:49;35.2;100.0
22674;DHT22;11504;43.334;21.918;2023-08-21T12:00:28;35.2;100.0
22674;DHT22;11504;43.334;21.918;2023-08-21T12:05:13;35.2;100.0
22674;DHT22;11504;43.334;21.918;2023-08-21T12:09:51;35.1;100.0
22674;DHT22;11504;43.334;21.918;2023-08-21T12:14:28;35.1;100.0
22674;DHT22;11504;43.334;21.918;2023-08-21T12:19:05;35.1;100.0
22674;DHT22;11504;43.334;21.918;2023-08-21T12:23:42;35.1;100.0
22674;DHT22;11504;43.334;21.918;2023-08-21T12:28:19;35.1;100.0
22674;DHT22;11504;43.334;21.918;2023-08-21T12:32:55;35.1;100.0
22674;DHT22;11504;43.334;21.918;2023-08-21T12:37:32;35.1;100.0
22674;DHT22;11504;43.334;21.918;2023-08-21T12:42:08;35.1;100.0
22674;DHT22;11504;43.334;21.918;2023-08-21T12:46:45;35.1;100.0
22674;DHT22;11504;43.334;21.918;2023-08-21T12:51:22;35.1;100.0
22674;DHT22;11504;43.334;21.918;2023-08-21T12:55:58;35.1;100.0
22674;DHT22;11504;43.334;21.918;2023-08-21T13:00:35;34.6;100.0
22674;DHT22;11504;43.334;21.918;2023-08-21T13:05:12;34.6;100.0
22674;DHT22;11504;43.334;21.918;2023-08-21T13:09:49;34.0;100.0
22674;DHT22;11504;43.334;21.918;2023-08-21T13:14:25;34.0;100.0
22674;DHT22;11504;43.334;21.918;2023-08-21T13:19:02;33.5;100.0
22674;DHT22;11504;43.334;21.918;2023-08-21T13:23:38;33.5;100.0
22674;DHT22;11504;43.334;21.918;2023-08-21T13:28:15;33.0;100.0
22674;DHT22;11504;43.334;21.918;2023-08-21T13:32:52;33.0;100.0
22674;DHT22;11504;43.334;21.918;2023-08-21T13:37:30;33.0;100.0
22674;DHT22;11504;43.334;21.918;2023-08-21T13:42:07;32.8;100.0
22674;DHT22;11504;43.334;21.918;2023-08-21T13:46:43;32.8;100.0
22674;DHT22;11504;43.334;21.918;2023-08-21T13:51:20;32.6;100.0
22674;DHT22;11504;43.334;21.918;2023-08-21T13:55:57;32.6;100.0
22674;DHT22;11504;43.334;21.918;2023-08-21T14:00:33;32.4;100.0
22674;DHT22;11504;43.334;21.918;2023-08-21T14:05:10;32.4;100.0
22674;DHT22;11504;43.334;21.918;2023-08-21T14:09:47;32.3;100.0
22674;DHT22;11504;43.334;21.918;2023-08-21T14:14:24;32.3;100.0
22674;DHT22;11504;43.334;21.918;2023-08-21T14:19:00;32.2;100.0
22674;DHT22;11504;43.334;21.918;2023-08-21T14:23:36;32.2;100.0
22674;DHT22;11504;43.334;21.918;2023-08-21T14:28:13;32.2;100.0
22674;DHT22;11504;43.334;21.918;2023-08-21T14:32:50;32.2;100.0
22674;DHT22;11504;43.334;21.918;2023-08-21T14:37:27;32.2;100.0
22674;DHT22;11504;43.334;21.918;2023-08-21T14:42:04;32.3;100.0
22674;DHT22;11504;43.334;21.918;2023-08-21T14:46:42;32.3;100.0
22674;DHT22;11504;43.334;21.918;2023-08-21T14:51:18;32.4;100.0
22674;DHT22;11504;43.334;21.918;2023-08-21T14:55:55;32.4;100.0
22674;DHT22;11504;43.334;21.918;2023-08-21T15:00:33;32.4;100.0
22674;DHT22;11504;43.334;21.918;2023-08-21T15:05:09;32.4;100.0
22674;DHT22;11504;43.334;21.918;2023-08-21T15:09:46;32.5;100.0
22674;DHT22;11504;43.334;21.918;2023-08-21T15:14:23;32.5;100.0
22674;DHT22;11504;43.334;21.918;2023-08-21T15:18:59;32.5;100.0
22674;DHT22;11504;43.334;21.918;2023-08-21T15:23:36;32.5;100.0
22674;DHT22;11504;43.334;21.918;2023-08-21T15:28:12;32.5;100.0
22674;DHT22;11504;43.334;21.918;2023-08-21T15:32:49;32.5;100.0
22674;DHT22;11504;43.334;21.918;2023-08-21T15:37:25;32.5;100.0
22674;DHT22;11504;43.334;21.918;2023-08-21T15:42:02;32.4;100.0
22674;DHT22;11504;43.334;21.918;2023-08-21T15:46:39;32.4;100.0
22674;DHT22;11504;43.334;21.918;2023-08-21T15:51:15;32.3;100.0
22674;DHT22;11504;43.334;21.918;2023-08-21T15:55:52;32.3;100.0
22674;DHT22;11504;43.334;21.918;2023-08-21T16:00:28;32.1;100.0
22674;DHT22;11504;43.334;21.918;2023-08-21T16:05:05;32.1;100.0
22674;DHT22;11504;43.334;21.918;2023-08-21T16:09:44;31.9;100.0
22674;DHT22;11504;43.334;21.918;2023-08-21T16:14:21;31.9;100.0
22674;DHT22;11504;43.334;21.918;2023-08-21T16:18:58;31.6;100.0
22674;DHT22;11504;43.334;21.918;2023-08-21T16:23:35;31.6;100.0
22674;DHT22;11504;43.334;21.918;2023-08-21T16:28:11;31.4;100.0
22674;DHT22;11504;43.334;21.918;2023-08-21T16:32:48;31.4;100.0
22674;DHT22;11504;43.334;21.918;2023-08-21T16:37:24;31.4;100.0
22674;DHT22;11504;43.334;21.918;2023-08-21T16:42:01;30.9;100.0
22674;DHT22;11504;43.334;21.918;2023-08-21T16:46:38;30.9;100.0
22674;DHT22;11504;43.334;21.918;2023-08-21T16:51:15;30.4;100.0
22674;DHT22;11504;43.334;21.918;2023-08-21T16:55:51;30.4;100.0
22674;DHT22;11504;43.334;21.918;2023-08-21T17:00:28;30.2;100.0
22674;DHT22;11504;43.334;21.918;2023-08-21T17:05:05;30.2;100.0
22674;DHT22;11504;43.334;21.918;2023-08-21T17:09:45;30.0;100.0
22674;DHT22;11504;43.334;21.918;2023-08-21T17:14:24;30.0;100.0
22674;DHT22;11504;43.334;21.918;2023-08-21T17:19:01;29.8;100.0
22674;DHT22;11504;43.334;21.918;2023-08-21T17:23:38;29.8;100.0
22674;DHT22;11504;43.334;21.918;2023-08-21T17:28:15;29.7;100.0
22674;DHT22;11504;43.334;21.918;2023-08-21T17:32:52;29.7;100.0
22674;DHT22;11504;43.334;21.918;2023-08-21T17:37:29;29.7;100.0
22674;DHT22;11504;43.334;21.918;2023-08-21T17:42:06;29.4;100.0
22674;DHT22;11504;43.334;21.918;2023-08-21T17:46:43;29.4;100.0
22674;DHT22;11504;43.334;21.918;2023-08-21T17:51:19;29.1;100.0
22674;DHT22;11504;43.334;21.918;2023-08-21T17:55:57;29.1;100.0
22674;DHT22;11504;43.334;21.918;2023-08-21T18:00:33;29.0;100.0
22674;DHT22;11504;43.334;21.918;2023-08-21T18:05:10;29.0;100.0
22674;DHT22;11504;43.334;21.918;2023-08-21T18:09:46;28.8;100.0
22674;DHT22;11504;43.334;21.918;2023-08-21T18:14:23;28.8;100.0
22674;DHT22;11504;43.334;21.918;2023-08-21T18:18:59;28.7;100.0
22674;DHT22;11504;43.334;21.918;2023-08-21T18:23:36;28.7;100.0
22674;DHT22;11504;43.334;21.918;2023-08-21T18:28:14;28.7;100.0
22674;DHT22;11504;43.334;21.918;2023-08-21T18:32:51;28.6;100.0
22674;DHT22;11504;43.334;21.918;2023-08-21T18:37:27;28.6;100.0
22674;DHT22;11504;43.334;21.918;2023-08-21T18:42:04;28.4;100.0
22674;DHT22;11504;43.334;21.918;2023-08-21T18:46:42;28.4;100.0
22674;DHT22;11504;43.334;21.918;2023-08-21T18:51:19;28.3;100.0
22674;DHT22;11504;43.334;21.918;2023-08-21T18:55:55;28.3;100.0
22674;DHT22;11504;43.334;21.918;2023-08-21T19:00:32;28.2;100.0
22674;DHT22;11504;43.334;21.918;2023-08-21T19:05:10;28.2;100.0
22674;DHT22;11504;43.334;21.918;2023-08-21T19:09:47;28.1;100.0
22674;DHT22;11504;43.334;21.918;2023-08-21T19:14:24;28.1;100.0
22674;DHT22;11504;43.334;21.918;2023-08-21T19:19:01;27.8;100.0
22674;DHT22;11504;43.334;21.918;2023-08-21T19:23:37;27.8;100.0
22674;DHT22;11504;43.334;21.918;2023-08-21T19:28:14;27.8;100.0
22674;DHT22;11504;43.334;21.918;2023-08-21T19:32:50;27.6;100.0
22674;DHT22;11504;43.334;21.918;2023-08-21T19:37:27;27.6;100.0
22674;DHT22;11504;43.334;21.918;2023-08-21T19:42:04;27.4;100.0
22674;DHT22;11504;43.334;21.918;2023-08-21T19:46:42;27.4;100.0
22674;DHT22;11504;43.334;21.918;2023-08-21T19:51:19;27.3;100.0
22674;DHT22;11504;43.334;21.918;2023-08-21T19:55:56;27.3;100.0
22674;DHT22;11504;43.334;21.918;2023-08-21T20:00:33;27.1;100.0
22674;DHT22;11504;43.334;21.918;2023-08-21T20:05:10;27.1;100.0
22674;DHT22;11504;43.334;21.918;2023-08-21T20:09:46;26.9;100.0
22674;DHT22;11504;43.334;21.918;2023-08-21T20:14:23;26.9;100.0
22674;DHT22;11504;43.334;21.918;2023-08-21T20:19:00;26.8;100.0
22674;DHT22;11504;43.334;21.918;2023-08-21T20:23:36;26.8;100.0
22674;DHT22;11504;43.334;21.918;2023-08-21T20:28:13;26.8;100.0
22674;DHT22;11504;43.334;21.918;2023-08-21T20:32:50;26.7;100.0
22674;DHT22;11504;43.334;21.918;2023-08-21T20:37:27;26.7;100.0
22674;DHT22;11504;43.334;21.918;2023-08-21T20:42:04;26.6;100.0
22674;DHT22;11504;43.334;21.918;2023-08-21T20:46:42;26.6;100.0
22674;DHT22;11504;43.334;21.918;2023-08-21T20:51:18;26.5;100.0
22674;DHT22;11504;43.334;21.918;2023-08-21T20:55:56;26.5;100.0
22674;DHT22;11504;43.334;21.918;2023-08-21T21:00:33;26.2;100.0
22674;DHT22;11504;43.334;21.918;2023-08-21T21:05:10;26.2;100.0
22674;DHT22;11504;43.334;21.918;2023-08-21T21:09:46;25.9;100.0
22674;DHT22;11504;43.334;21.918;2023-08-21T21:14:23;25.9;100.0
22674;DHT22;11504;43.334;21.918;2023-08-21T21:19:01;25.6;100.0
22674;DHT22;11504;43.334;21.918;2023-08-21T21:23:38;25.6;100.0
22674;DHT22;11504;43.334;21.918;2023-08-21T21:28:14;25.6;100.0
22674;DHT22;11504;43.334;21.918;2023-08-21T21:32:51;25.4;100.0
22674;DHT22;11504;43.334;21.918;2023-08-21T21:37:28;25.4;100.0
22674;DHT22;11504;43.334;21.918;2023-08-21T21:42:05;25.4;100.0
22674;DHT22;11504;43.334;21.918;2023-08-21T21:46:43;25.4;100.0
22674;DHT22;11504;43.334;21.918;2023-08-21T21:51:20;25.3;100.0
22674;DHT22;11504;43.334;21.918;2023-08-21T21:55:57;25.3;100.0
22674;DHT22;11504;43.334;21.918;2023-08-21T22:00:34;25.3;100.0
22674;DHT22;11504;43.334;21.918;2023-08-21T22:05:10;25.3;100.0
22674;DHT22;11504;43.334;21.918;2023-08-21T22:09:47;25.3;100.0
22674;DHT22;11504;43.334;21.918;2023-08-21T22:14:23;25.3;100.0
22674;DHT22;11504;43.334;21.918;2023-08-21T22:19:00;25.2;100.0
22674;DHT22;11504;43.334;21.918;2023-08-21T22:23:36;25.2;100.0
22674;DHT22;11504;43.334;21.918;2023-08-21T22:28:13;25.2;100.0
22674;DHT22;11504;43.334;21.918;2023-08-21T22:32:50;25.0;100.0
22674;DHT22;11504;43.334;21.918;2023-08-21T22:37:29;25.0;100.0
22674;DHT22;11504;43.334;21.918;2023-08-21T22:42:07;24.8;100.0
22674;DHT22;11504;43.334;21.918;2023-08-21T22:46:44;24.8;100.0
22674;DHT22;11504;43.334;21.918;2023-08-21T22:51:21;24.7;100.0
22674;DHT22;11504;43.334;21.918;2023-08-21T22:55:58;24.7;100.0
22674;DHT22;11504;43.334;21.918;2023-08-21T23:00:37;24.5;100.0
22674;DHT22;11504;43.334;21.918;2023-08-21T23:05:13;24.5;100.0
22674;DHT22;11504;43.334;21.918;2023-08-21T23:09:51;24.4;100.0
22674;DHT22;11504;43.334;21.918;2023-08-21T23:14:27;24.4;100.0
22674;DHT22;11504;43.334;21.918;2023-08-21T23:19:06;24.4;100.0
22674;DHT22;11504;43.334;21.918;2023-08-21T23:23:42;24.4;100.0
22674;DHT22;11504;43.334;21.918;2023-08-21T23:28:19;24.4;100.0
22674;DHT22;11504;43.334;21.918;2023-08-21T23:32:57;24.5;100.0
22674;DHT22;11504;43.334;21.918;2023-08-21T23:37:33;24.5;100.0
22674;DHT22;11504;43.334;21.918;2023-08-21T23:42:09;24.4;100.0
22674;DHT22;11504;43.334;21.918;2023-08-21T23:46:46;24.4;100.0
22674;DHT22;11504;43.334;21.918;2023-08-21T23:51:23;24.3;100.0
22674;DHT22;11504;43.334;21.918;2023-08-21T23:56:00;24.3;100.0
